Date,TemperatureHighF,TemperatureAvgF,TemperatureLowF,DewpointHighF,DewpointAvgF,DewpointLowF,HumidityHigh,HumidityAvg,HumidityLow,PressureMaxIn,PressureMinIn,WindSpeedMaxMPH,WindSpeedAvgMPH,GustSpeedMaxMPH,PrecipitationSumIn
2013-1-1,26.1,23.0,19.8,18.6,15.2,13.2,77,72,64,30.19,30.08,9,4,14,0.00
2013-1-2,27.2,24.8,20.6,22.6,18.9,13.0,83,78,72,30.19,30.11,7,2,12,0.00
2013-1-3,30.3,26.4,20.5,26.4,21.1,13.0,88,80,72,30.18,30.05,10,3,17,0.00
2013-1-4,34.1,30.3,27.0,26.3,24.3,20.5,86,78,71,30.18,30.05,14,6,24,0.01
2013-1-5,37.9,31.4,23.7,31.9,27.0,20.9,93,84,63,30.23,29.95,9,2,14,0.01
2013-1-6,36.8,34.1,30.7,33.8,30.0,25.0,93,85,72,30.28,29.85,13,5,18,0.23
2013-1-7,38.4,32.8,29.2,27.0,23.5,16.6,84,70,43,30.31,30.10,13,5,21,0.00
2013-1-8,38.6,33.1,28.1,29.6,26.6,23.9,85,77,67,30.20,30.07,6,2,12,0.01
2013-1-9,44.8,39.5,32.6,34.7,30.7,25.8,80,71,52,30.42,29.97,14,5,31,0.00
2013-1-10,45.8,34.8,24.4,33.5,27.5,21.9,92,76,50,30.54,30.04,6,2,16,0.30
2013-1-11,52.3,45.6,36.3,50.6,43.6,33.6,96,93,90,30.03,29.70,10,3,20,0.54
2013-1-12,56.7,48.4,36.9,48.7,41.8,32.4,91,78,59,29.94,29.72,15,4,26,0.04
2013-1-13,36.8,31.3,24.7,33.0,28.1,18.8,93,88,78,30.12,29.82,10,5,18,0.14
2013-1-14,25.7,22.1,18.7,19.1,16.5,14.9,86,79,70,30.45,30.12,12,3,20,0.00
2013-1-15,31.3,24.6,18.6,21.0,18.3,15.7,90,77,61,30.44,30.15,6,1,9,0.00
2013-1-16,35.3,28.8,19.8,30.3,22.5,16.0,88,78,58,30.15,29.79,15,5,25,0.00
2013-1-17,35.3,27.2,21.1,29.1,17.4,8.9,78,66,56,30.36,29.98,16,7,26,0.00
2013-1-18,41.2,28.9,17.7,30.9,19.3,9.9,85,67,58,30.42,29.88,14,5,24,0.00
2013-1-19,44.9,42.1,38.9,37.1,33.2,20.6,77,71,46,29.88,29.58,17,8,37,0.00
2013-1-20,34.4,17.7,15.2,22.4,11.4,8.9,85,76,53,30.23,29.64,30,8,46,0.00
2013-1-21,15.9,10.6,3.1,11.8,7.0,-0.9,94,85,82,30.20,30.06,15,7,21,0.00
2013-1-22,8.1,4.3,0.3,4.4,0.5,-3.6,85,84,82,30.34,30.20,9,3,13,0.00
2013-1-23,18.0,11.1,2.4,15.0,7.8,-1.4,90,86,84,30.34,30.10,9,2,15,0.00
2013-1-24,16.6,9.7,-3.0,10.6,5.3,-7.1,87,82,72,30.66,30.24,5,1,9,0.05
2013-1-25,21.9,17.8,12.9,18.8,13.8,7.3,90,84,77,30.47,29.97,6,1,12,0.00
2013-1-26,27.8,23.5,19.0,22.0,18.7,15.8,89,82,65,30.42,30.05,8,2,12,0.00
2013-1-27,30.9,26.5,20.8,28.6,21.1,17.3,91,80,67,30.42,30.00,7,2,15,0.00
2013-1-28,43.8,36.3,30.2,42.5,33.8,27.9,95,91,85,30.00,29.80,9,2,17,0.09
2013-1-29,55.2,46.8,31.6,53.8,45.2,29.8,95,94,91,29.93,29.33,8,3,14,1.25
2013-1-30,48.9,38.5,24.3,47.3,36.6,21.0,97,93,85,29.35,29.08,20,5,26,0.40
2013-1-31,24.3,18.8,15.5,21.8,15.7,12.7,95,88,79,29.92,29.37,16,6,26,0.00
2013-2-1,16.0,14.1,11.5,13.3,11.1,8.4,89,87,83,30.25,29.93,9,4,15,0.00
2013-2-2,17.3,13.6,2.8,14.9,9.6,-0.7,90,84,70,30.16,30.00,8,2,10,0.00
2013-2-3,19.2,14.1,3.6,16.2,10.5,0.1,89,85,81,30.03,29.89,12,2,20,0.00
2013-2-4,21.6,16.3,6.5,16.0,12.4,3.2,89,84,74,30.02,29.89,8,2,10,0.00
2013-2-5,28.9,18.2,0.9,26.3,14.8,-2.6,90,86,77,30.01,29.77,10,3,17,0.00
2013-2-6,33.5,24.5,9.6,23.2,18.2,6.8,91,77,61,30.25,30.02,6,1,12,0.21
2013-2-7,33.0,30.1,27.6,30.1,26.0,21.0,94,85,73,30.20,29.85,9,3,13,0.07
2013-2-8,31.8,26.4,11.5,28.3,22.4,8.0,94,85,68,30.37,29.85,10,5,15,0.10
2013-2-9,33.2,18.4,-1.4,22.3,12.3,-5.3,91,78,62,30.43,30.20,6,1,12,0.10
2013-2-10,41.6,29.8,17.9,39.7,25.8,14.6,93,85,73,30.19,29.52,9,2,20,0.32
2013-2-11,44.2,35.4,30.3,42.0,30.8,23.5,93,83,73,29.87,29.47,15,8,36,0.08
2013-2-12,30.3,28.5,26.7,24.6,22.8,21.1,83,79,74,30.04,29.87,10,4,20,0.00
2013-2-13,38.1,30.4,23.2,29.6,25.4,20.3,90,82,67,29.90,29.71,8,2,12,0.02
2013-2-14,39.8,32.8,27.2,33.7,29.9,22.8,93,89,76,29.89,29.60,12,4,20,0.12
2013-2-15,27.7,23.9,20.6,22.9,17.0,13.4,88,75,59,30.14,29.89,13,5,17,0.00
2013-2-16,21.0,17.6,9.5,17.2,13.2,6.7,90,83,67,30.12,30.04,12,4,17,0.00
2013-2-17,25.3,13.1,-2.2,11.9,5.6,-6.1,88,73,52,30.24,30.12,5,1,9,0.01
2013-2-18,45.2,34.5,19.0,40.7,24.4,10.8,91,67,55,30.13,29.39,9,4,21,0.17
2013-2-19,42.7,24.9,16.6,40.2,21.9,12.9,91,88,83,29.98,29.33,12,7,24,0.09
2013-2-20,22.2,19.1,15.3,16.4,13.2,10.1,87,78,69,30.30,29.98,15,9,25,0.00
2013-2-21,26.1,22.6,20.3,18.9,16.1,13.6,86,76,69,30.38,30.15,18,7,25,0.00
2013-2-22,32.6,26.5,20.3,30.8,23.4,14.5,93,88,78,30.16,29.83,15,4,23,0.02
2013-2-23,31.6,28.7,24.9,28.5,24.6,21.3,92,85,72,29.89,29.81,9,4,17,0.00
2013-2-24,37.6,30.4,22.1,27.5,24.2,19.3,90,78,59,30.14,29.87,9,3,14,0.10
2013-2-25,41.0,27.7,13.3,28.2,20.2,10.4,92,75,52,30.22,30.07,9,1,10,0.01
2013-2-26,34.9,31.5,28.3,31.1,25.4,21.6,94,78,66,30.09,29.50,24,12,32,0.02
2013-2-27,35.6,33.6,32.5,33.8,32.0,31.0,94,94,93,29.60,29.47,9,4,14,0.19
2013-2-28,35.9,33.4,30.0,31.9,28.7,23.6,94,83,75,30.00,29.60,12,7,16,0.01
2013-3-1,29.9,26.4,20.4,23.9,18.7,14.9,79,72,63,30.16,30.00,12,5,15,0.00
2013-3-2,29.0,21.3,13.9,17.6,14.4,10.8,87,75,59,30.17,30.09,14,4,17,0.00
2013-3-3,31.6,20.2,8.1,18.6,13.0,4.8,89,75,53,30.11,30.02,9,2,14,0.00
2013-3-4,34.8,21.2,7.1,18.3,12.6,3.7,89,71,42,30.18,30.07,7,1,12,0.00
2013-3-5,32.6,26.4,18.6,23.2,18.8,12.9,84,73,63,30.11,29.85,17,8,23,0.00
2013-3-6,38.4,33.0,26.9,28.9,26.9,22.7,87,78,66,30.22,29.95,13,5,22,0.00
2013-3-7,35.2,31.1,21.8,28.8,23.5,18.3,87,74,56,30.41,30.21,10,4,14,0.00
2013-3-8,41.3,28.6,16.0,25.0,20.2,12.9,90,72,49,30.50,30.37,6,1,10,0.00
2013-3-9,42.8,35.7,25.8,33.5,26.6,20.0,86,70,56,30.37,29.92,10,2,17,0.01
2013-3-10,48.9,44.4,40.7,43.8,39.4,33.1,95,83,65,29.91,29.65,9,2,12,0.30
2013-3-11,52.2,43.5,34.1,47.4,40.7,32.0,94,90,75,29.65,29.44,12,3,20,0.26
2013-3-12,34.7,31.7,28.7,32.6,26.7,23.1,93,82,69,29.87,29.62,12,5,20,0.02
2013-3-13,30.6,26.7,22.9,24.7,18.7,14.0,90,73,53,30.24,29.88,16,8,25,0.00
2013-3-14,38.4,30.0,19.7,24.9,19.6,15.8,86,66,45,30.27,30.06,7,2,13,0.00
2013-3-15,38.6,35.4,32.0,33.5,31.5,25.3,91,86,76,30.07,29.82,7,3,17,0.03
2013-3-16,34.5,29.2,25.3,30.2,23.7,19.3,92,80,59,30.07,29.74,14,7,20,0.04
2013-3-17,31.7,27.4,24.0,21.4,16.0,11.0,75,62,48,30.25,30.07,13,6,18,0.01
2013-3-18,33.9,28.0,21.5,31.1,23.5,15.5,93,83,72,30.11,29.56,15,5,22,0.03
2013-3-19,29.7,24.0,20.0,26.0,18.1,13.2,90,79,55,29.95,29.61,13,6,25,0.00
2013-3-20,27.2,21.3,13.5,16.0,13.6,10.4,88,73,55,29.98,29.92,13,6,21,0.01
2013-3-21,30.0,23.4,12.7,23.6,18.2,9.6,90,80,69,29.99,29.91,14,5,20,0.00
2013-3-22,35.1,29.7,25.8,23.7,20.9,17.9,82,70,58,30.04,29.98,8,3,16,0.02
2013-3-23,34.0,29.2,23.3,24.2,22.5,19.4,86,76,65,30.14,30.04,8,4,12,0.00
2013-3-24,37.4,30.9,24.1,26.2,23.4,19.6,90,74,59,30.05,29.69,20,8,28,0.00
2013-3-25,38.4,33.9,30.3,27.1,25.0,22.1,78,70,57,29.97,29.65,16,10,22,0.00
2013-3-26,39.5,34.4,30.0,33.8,29.3,26.0,90,81,70,30.16,29.97,12,5,16,0.04
2013-3-27,42.9,36.2,30.9,30.1,27.2,22.8,91,71,51,30.24,30.16,14,6,24,0.01
2013-3-28,47.3,37.3,27.5,29.7,25.0,20.9,89,63,41,30.30,30.24,12,3,16,0.00
2013-3-29,48.9,35.4,22.5,31.9,23.9,19.7,90,66,37,30.29,30.21,9,2,17,0.00
2013-3-30,56.1,39.2,22.1,34.7,25.5,19.9,92,64,30,30.22,29.85,9,2,15,0.01
2013-3-31,48.0,42.4,36.2,40.8,36.2,29.7,92,79,60,29.84,29.64,16,5,24,0.06
2013-4-1,36.2,29.5,25.8,30.3,17.1,12.7,86,60,48,30.10,29.74,18,8,32,0.00
2013-4-2,36.3,29.8,20.2,21.2,16.8,13.7,85,60,41,30.26,30.10,17,5,24,0.00
2013-4-3,44.0,31.3,21.0,21.1,17.7,11.8,83,59,29,30.45,30.25,12,3,17,0.00
2013-4-4,51.4,39.4,24.0,26.8,21.0,17.9,82,51,30,30.33,29.93,12,3,18,0.00
2013-4-5,47.2,38.7,30.8,28.0,23.0,15.2,76,55,28,30.18,29.94,13,5,17,0.00
2013-4-6,57.7,46.6,35.5,42.5,25.8,15.8,67,45,33,30.17,29.60,10,4,22,0.01
2013-4-7,55.3,44.0,31.7,47.3,36.3,28.2,88,74,59,29.99,29.52,15,6,27,0.11
2013-4-8,51.9,40.6,32.0,49.2,36.9,28.9,95,86,76,29.98,29.61,14,4,26,0.61
2013-4-9,46.6,42.3,38.6,44.7,40.5,37.0,95,93,90,30.04,29.83,13,4,35,1.31
2013-4-10,42.3,40.2,37.7,39.9,36.9,31.8,92,88,79,30.01,29.75,23,10,31,0.40
2013-4-11,38.4,36.3,35.3,34.1,33.1,30.1,91,88,72,29.95,29.61,25,12,43,1.23
2013-4-12,40.8,36.7,33.5,36.7,33.8,31.5,94,89,78,29.74,29.53,13,5,24,0.23
2013-4-13,39.1,36.4,34.1,34.7,30.2,25.2,93,79,59,29.95,29.73,14,5,27,0.12
2013-4-14,49.0,38.5,29.5,40.6,33.3,26.6,92,82,69,30.07,29.79,14,3,22,0.10
2013-4-15,64.2,53.9,44.4,53.7,46.8,36.1,92,77,68,29.90,29.76,10,3,22,0.57
2013-4-16,50.3,45.1,40.1,44.2,36.5,31.6,93,73,53,30.23,29.88,13,5,18,0.31
2013-4-17,50.5,44.8,40.9,42.2,36.3,31.4,92,73,54,30.31,29.90,18,8,33,1.23
2013-4-18,62.3,53.4,43.8,58.9,51.1,41.3,96,92,82,29.95,29.38,12,4,23,1.84
2013-4-19,59.3,38.6,33.1,56.1,32.8,24.5,91,80,65,29.74,29.38,17,8,42,0.15
2013-4-20,37.0,32.2,27.7,27.0,20.9,17.7,81,63,46,30.43,29.74,16,7,26,0.02
2013-4-21,52.6,38.9,23.6,31.5,23.9,19.1,89,58,33,30.58,30.37,8,2,17,0.00
2013-4-22,65.2,50.6,35.2,35.4,30.0,24.7,77,49,23,30.38,30.08,6,2,13,0.00
2013-4-23,62.9,50.4,39.6,49.1,40.4,30.1,92,70,41,30.08,29.80,10,3,14,0.43
2013-4-24,44.4,38.1,33.4,37.1,29.6,24.2,92,73,46,30.07,29.84,16,6,21,0.15
2013-4-25,47.9,41.6,36.5,37.6,32.2,27.0,91,70,49,30.30,30.00,16,5,25,0.17
2013-4-26,64.8,50.3,35.7,41.1,33.8,28.9,78,56,33,30.38,30.22,10,3,18,0.00
2013-4-27,70.4,57.7,41.9,46.4,40.5,32.3,86,56,26,30.26,30.01,7,2,13,0.00
2013-4-28,64.9,57.8,48.5,53.0,45.9,36.7,87,65,50,30.01,29.77,10,2,15,0.00
2013-4-29,69.5,58.3,44.2,55.5,50.0,42.3,94,76,55,29.89,29.77,8,2,14,0.00
2013-4-30,78.8,66.3,55.7,61.2,56.1,51.2,91,71,50,29.90,29.79,9,4,20,0.42
2013-5-1,85.1,73.0,61.6,60.1,56.6,52.9,78,59,34,30.10,29.91,6,2,15,0.00
2013-5-2,82.9,69.1,55.9,59.3,55.0,50.5,82,62,36,30.12,30.00,8,2,13,0.00
2013-5-3,79.5,65.0,51.6,59.4,52.3,37.5,91,67,32,30.05,29.90,8,2,18,0.00
2013-5-4,73.9,66.6,58.5,51.7,42.9,37.2,57,43,30,30.04,29.95,13,3,20,0.00
2013-5-5,75.3,64.0,54.3,48.4,40.9,29.1,59,44,21,30.04,29.94,14,3,22,0.00
2013-5-6,75.1,61.5,46.2,47.0,39.5,29.1,81,49,19,30.03,29.92,9,2,14,0.00
2013-5-7,78.5,64.0,47.3,54.6,46.4,41.7,90,56,32,30.03,29.93,9,2,15,0.00
2013-5-8,79.3,66.1,51.4,55.3,50.1,45.0,90,59,34,30.01,29.91,10,1,17,0.00
2013-5-9,79.9,63.7,48.5,51.4,47.2,39.4,91,61,24,29.95,29.83,7,1,18,0.01
2013-5-10,57.3,49.5,44.8,53.3,46.1,41.8,91,88,81,29.90,29.75,14,6,21,0.39
2013-5-11,52.5,45.2,37.3,47.3,40.9,34.4,92,85,64,29.93,29.73,20,4,32,0.17
2013-5-12,44.7,40.0,35.6,35.4,30.2,25.9,90,68,50,30.12,29.92,16,6,24,0.00
2013-5-13,52.4,41.9,27.7,34.4,27.4,20.7,92,61,30,30.19,30.05,10,2,16,0.00
2013-5-14,72.1,59.7,45.0,53.4,42.5,27.3,77,53,42,30.05,29.58,9,2,21,0.00
2013-5-15,75.1,67.9,53.1,58.8,50.5,41.1,81,55,35,29.78,29.51,12,3,18,0.00
2013-5-16,78.1,63.3,44.9,51.3,45.9,38.1,92,58,28,29.97,29.78,8,2,14,0.00
2013-5-17,67.1,60.5,52.9,47.6,43.4,36.8,63,54,35,30.09,29.97,13,5,18,0.00
2013-5-18,81.0,67.4,54.8,60.9,50.8,44.9,80,57,37,30.11,29.93,7,2,12,0.00
2013-5-19,86.3,72.9,58.5,64.1,55.7,45.8,70,56,42,29.96,29.77,6,1,15,0.00
2013-5-20,85.6,76.8,69.0,70.7,63.1,57.0,81,64,39,29.79,29.67,12,2,26,0.00
2013-5-21,78.8,71.2,62.6,65.1,62.5,59.9,93,75,56,29.73,29.63,10,3,26,0.36
2013-5-22,66.9,63.1,56.2,63.9,60.3,54.5,94,91,85,29.67,29.59,7,1,13,0.43
2013-5-23,56.1,50.9,42.9,54.4,47.3,35.5,95,88,70,30.24,29.66,17,6,22,0.42
2013-5-24,57.6,46.7,36.2,45.8,38.2,33.1,89,73,57,30.41,30.24,10,3,14,0.00
2013-5-25,64.0,51.3,36.7,42.2,37.6,33.7,94,64,33,30.43,30.28,9,2,12,0.00
2013-5-26,69.2,57.1,42.8,43.9,39.6,35.0,91,56,29,30.36,30.19,7,1,13,0.00
2013-5-27,59.8,54.2,51.0,49.8,43.7,36.7,92,69,49,30.21,29.93,9,2,23,0.07
2013-5-28,75.3,62.5,52.4,67.3,59.2,49.8,95,89,72,29.95,29.73,8,2,20,0.70
2013-5-29,78.6,67.7,60.3,67.2,62.9,58.3,94,85,61,29.96,29.76,7,2,20,0.14
2013-5-30,84.7,76.1,66.2,70.0,65.9,61.1,90,72,54,29.95,29.82,9,2,20,0.00
2013-5-31,78.6,72.8,64.9,67.6,64.6,61.3,93,76,58,29.87,29.74,9,3,20,0.25
2013-6-1,76.5,70.5,63.5,65.7,62.8,59.9,92,78,57,29.75,29.62,12,3,26,0.28
2013-6-2,63.4,53.9,44.6,61.0,48.7,40.4,94,83,68,30.03,29.61,14,5,20,0.03
2013-6-3,63.9,52.2,37.9,47.0,41.7,36.1,94,70,46,30.13,30.03,10,2,15,0.00
2013-6-4,70.3,58.9,44.5,52.2,46.1,42.4,93,65,44,30.20,30.10,9,2,12,0.00
2013-6-5,70.0,61.5,56.6,50.3,44.8,36.1,79,55,34,30.15,29.98,10,3,17,0.03
2013-6-6,63.7,58.4,54.5,53.6,50.7,47.1,87,76,61,30.00,29.88,10,4,14,0.06
2013-6-7,73.5,60.7,50.4,51.0,47.3,42.7,85,64,34,29.95,29.83,13,4,21,0.00
2013-6-8,73.6,62.6,49.8,55.1,50.0,45.0,92,66,38,30.02,29.89,6,1,9,0.00
2013-6-9,80.5,68.3,54.1,63.0,57.7,50.6,89,70,49,30.04,29.86,6,2,18,0.17
2013-6-10,71.0,66.1,62.1,65.1,61.6,56.4,93,86,68,29.87,29.73,9,3,13,0.26
2013-6-11,78.5,66.2,55.7,66.9,60.6,54.0,95,83,65,29.92,29.79,6,1,12,0.00
2013-6-12,76.3,67.4,60.6,68.5,63.3,58.6,94,87,74,29.92,29.61,12,2,26,0.66
2013-6-13,73.2,66.2,59.4,63.0,58.6,54.7,94,78,56,29.97,29.59,13,6,21,0.51
2013-6-14,76.2,64.1,53.9,58.1,53.6,49.5,89,71,41,30.11,29.97,9,3,14,0.00
2013-6-15,73.0,63.6,52.2,63.0,57.8,50.2,94,82,64,30.06,29.84,8,1,15,0.00
2013-6-16,77.2,68.6,60.9,65.5,61.7,57.3,94,80,55,29.86,29.77,10,3,20,1.35
2013-6-17,81.7,69.8,57.0,63.9,57.9,55.0,94,69,41,29.91,29.81,12,2,17,0.00
2013-6-18,70.6,63.4,55.9,59.0,51.1,43.3,88,67,39,30.07,29.89,13,5,20,0.00
2013-6-19,75.8,62.4,45.7,54.5,44.9,38.7,91,56,28,30.18,30.07,8,1,12,0.00
2013-6-20,83.4,67.4,49.1,61.1,52.4,45.6,94,64,34,30.19,30.08,5,1,12,0.00
2013-6-21,82.1,73.1,61.6,66.3,61.7,55.6,89,69,52,30.14,29.93,7,1,15,0.00
2013-6-22,86.0,74.9,66.8,70.3,66.6,63.4,90,76,54,30.07,29.92,7,1,12,0.00
2013-6-23,86.2,77.6,66.7,69.2,66.5,63.6,92,70,51,29.99,29.88,9,3,16,0.00
2013-6-24,83.2,75.8,70.5,69.6,66.3,62.4,85,73,54,30.01,29.82,8,2,24,0.00
2013-6-25,78.7,70.2,66.0,70.9,65.9,62.3,94,87,75,29.96,29.78,13,2,25,0.49
2013-6-26,83.4,74.5,65.3,71.4,67.4,63.3,94,80,57,29.83,29.68,6,1,12,0.00
2013-6-27,82.6,73.6,65.4,71.1,67.5,63.3,94,82,59,29.73,29.63,9,2,14,0.00
2013-6-28,77.3,69.4,64.2,67.2,63.2,60.9,94,82,61,29.64,29.54,12,2,20,0.21
2013-6-29,70.7,66.1,59.8,63.9,61.0,58.1,95,84,69,29.76,29.56,12,3,17,0.01
2013-6-30,78.7,69.9,60.1,63.5,57.9,50.8,93,68,38,29.98,29.76,14,4,24,0.00
2013-7-1,77.0,66.8,56.8,55.3,50.3,46.4,74,57,38,30.09,29.98,16,6,26,0.00
2013-7-2,65.1,61.8,57.5,60.7,53.1,40.3,89,75,43,30.10,30.05,10,4,14,0.14
2013-7-3,80.3,67.6,60.4,67.8,60.5,51.0,92,79,59,30.09,30.00,6,2,12,0.27
2013-7-4,78.1,69.2,61.0,65.2,61.5,57.5,94,78,50,30.12,30.05,6,1,10,0.00
2013-7-5,84.5,72.8,61.2,66.0,62.8,59.2,94,73,46,30.10,30.00,5,0,8,0.00
2013-7-6,84.7,72.4,64.2,69.4,65.2,61.4,93,79,54,30.07,29.95,6,0,9,0.00
2013-7-7,83.6,74.9,69.1,71.2,67.9,65.8,92,80,59,30.00,29.92,6,1,12,0.00
2013-7-8,77.4,74.3,69.0,71.9,69.6,66.6,92,86,77,29.99,29.92,7,1,16,0.03
2013-7-9,83.7,72.0,66.5,74.0,69.3,64.4,94,91,67,29.98,29.83,7,1,13,0.21
2013-7-10,78.2,74.0,60.1,74.0,65.6,55.6,94,76,53,29.97,29.78,14,5,22,0.00
2013-7-11,79.2,67.1,54.3,60.1,55.7,51.9,95,71,39,30.08,29.97,13,2,20,0.00
2013-7-12,81.7,69.0,56.9,61.1,56.2,49.8,89,67,34,30.17,30.05,8,2,12,0.00
2013-7-13,86.1,72.8,57.0,62.2,58.1,54.3,94,64,36,30.19,30.11,8,1,14,0.00
2013-7-14,91.3,77.6,62.0,70.3,65.2,59.0,93,69,41,30.23,30.16,6,1,10,0.00
2013-7-15,91.5,80.3,68.6,74.5,70.8,66.2,94,75,52,30.26,30.17,5,1,8,0.00
2013-7-16,89.4,81.3,71.7,75.5,72.6,69.5,94,76,58,30.28,30.20,6,1,13,0.00
2013-7-17,91.0,81.6,72.6,76.9,72.8,69.5,93,76,56,30.26,30.12,7,1,14,0.00
2013-7-18,91.7,83.2,72.9,76.2,72.3,70.4,92,72,53,30.14,29.88,7,2,15,0.00
2013-7-19,90.1,84.1,79.5,74.4,72.4,67.9,82,69,54,29.90,29.67,12,4,24,0.15
2013-7-20,83.5,76.0,65.0,71.0,62.0,55.0,89,64,41,29.95,29.70,10,2,17,0.00
2013-7-21,85.0,71.2,61.0,69.0,58.5,50.6,92,65,46,30.03,29.89,8,2,12,0.26
2013-7-22,85.8,74.2,65.5,70.2,66.7,63.3,94,79,54,29.94,29.72,6,1,13,0.02
2013-7-23,77.3,71.4,57.2,70.6,62.8,49.3,90,75,54,29.96,29.65,14,5,22,0.00
2013-7-24,74.5,61.3,47.5,54.8,49.4,45.3,93,68,40,30.08,29.97,9,2,14,0.00
2013-7-25,77.7,64.9,50.4,58.8,53.5,48.5,94,70,44,30.13,30.05,6,1,12,0.00
2013-7-26,75.1,66.8,58.8,63.0,58.9,51.3,93,77,60,30.07,29.88,7,1,15,0.27
2013-7-27,69.1,62.3,55.7,62.3,57.3,50.1,95,84,69,29.89,29.83,13,3,21,0.00
2013-7-28,65.9,58.8,53.0,56.6,53.6,49.7,94,84,62,29.98,29.83,8,2,16,0.33
2013-7-29,69.1,61.3,55.9,58.4,55.8,53.3,93,83,65,30.21,29.96,7,2,13,0.07
2013-7-30,80.2,65.6,48.6,63.3,55.8,46.7,97,73,48,30.26,30.11,5,1,8,0.01
2013-7-31,70.6,66.6,63.5,66.3,63.0,59.9,93,88,79,30.12,29.92,5,1,8,0.15
2013-8-1,76.3,68.0,61.0,64.7,59.7,53.2,95,77,47,29.95,29.92,14,2,20,0.01
2013-8-2,75.2,66.7,59.5,67.1,62.2,57.2,93,86,74,29.94,29.84,8,2,17,0.03
2013-8-3,76.6,66.7,57.1,63.1,56.7,51.9,95,73,46,30.09,29.92,13,3,17,0.01
2013-8-4,72.8,62.8,52.6,59.1,53.1,46.4,94,73,43,30.23,30.09,8,2,14,0.00
2013-8-5,72.8,60.9,48.0,61.3,54.1,46.1,95,80,56,30.14,29.94,5,0,9,0.00
2013-8-6,78.3,69.9,64.9,69.4,65.2,61.1,93,85,72,29.95,29.85,6,1,10,0.02
2013-8-7,80.7,72.7,63.8,72.7,66.9,60.9,93,83,68,29.94,29.80,15,3,21,0.14
2013-8-8,77.3,67.3,57.2,61.4,55.1,47.4,94,69,36,30.06,29.94,8,2,16,0.01
2013-8-9,79.3,68.2,54.0,62.5,58.3,52.0,94,73,49,30.03,29.97,8,1,16,0.00
2013-8-10,78.8,68.7,58.5,61.5,57.0,51.3,93,69,41,30.15,30.03,7,2,12,0.00
2013-8-11,76.6,67.3,58.7,61.4,57.9,54.9,92,74,49,30.14,30.05,6,1,10,0.00
2013-8-12,76.5,68.3,63.6,68.5,64.3,59.5,94,87,69,30.06,29.86,6,1,9,0.23
2013-8-13,67.5,60.6,52.8,59.9,50.8,45.9,90,71,50,30.15,29.91,14,5,20,0.00
2013-8-14,71.7,56.0,43.4,54.1,48.0,41.2,94,76,48,30.25,30.15,7,1,17,0.00
2013-8-15,75.1,60.0,45.7,60.6,51.6,43.8,95,77,47,30.19,30.11,7,1,14,0.00
2013-8-16,80.6,65.4,50.4,62.2,55.0,48.5,95,73,39,30.21,30.14,6,1,10,0.00
2013-8-17,84.0,68.1,51.4,62.8,54.4,49.4,95,67,31,30.25,30.15,8,1,12,0.01
2013-8-18,83.2,68.1,52.0,61.4,56.1,50.0,94,70,39,30.22,30.08,7,1,12,0.00
2013-8-19,82.3,67.6,51.3,63.2,57.4,49.4,94,73,45,30.11,30.01,6,1,13,0.00
2013-8-20,85.6,72.8,61.1,68.9,63.3,58.3,93,74,51,30.10,30.02,6,1,16,0.00
2013-8-21,87.5,77.0,66.5,69.9,65.9,63.2,90,71,49,30.06,29.91,8,2,15,0.00
2013-8-22,77.5,70.2,63.8,70.2,66.7,61.7,94,89,75,30.06,29.92,17,2,32,0.13
2013-8-23,81.6,69.9,52.5,63.7,54.7,48.3,95,63,32,30.18,30.06,9,2,13,0.01
2013-8-24,84.0,68.9,53.6,61.7,56.0,51.5,95,68,37,30.29,30.16,6,1,13,0.00
2013-8-25,87.7,75.1,62.1,66.2,62.4,57.7,87,66,48,30.24,30.08,9,2,18,0.00
2013-8-26,83.8,76.3,68.5,72.1,68.1,64.3,88,76,64,30.10,29.94,7,1,14,0.00
2013-8-27,90.1,80.9,73.0,76.3,72.8,70.2,94,78,56,29.95,29.75,8,2,18,0.44
2013-8-28,83.8,77.3,71.6,73.7,71.4,68.9,94,83,63,29.98,29.76,7,3,12,0.07
2013-8-29,89.4,76.6,66.6,70.7,66.9,61.1,95,75,39,30.06,29.95,6,1,10,0.01
2013-8-30,89.2,76.4,65.9,72.7,68.8,63.8,94,79,56,29.95,29.69,9,3,20,0.00
2013-8-31,80.5,71.3,62.8,67.2,64.1,60.9,94,79,60,29.83,29.76,8,2,12,0.00
2013-9-1,84.7,72.3,62.9,71.6,66.9,60.5,94,84,59,29.82,29.67,6,1,12,0.00
2013-9-2,71.2,65.2,60.5,68.8,58.8,52.3,93,80,65,29.95,29.72,12,4,20,0.01
2013-9-3,73.4,61.9,53.4,56.6,53.9,50.4,90,76,54,30.05,29.95,9,2,13,0.00
2013-9-4,79.7,66.6,54.7,63.9,58.7,52.1,94,78,51,30.09,30.00,9,2,16,0.01
2013-9-5,73.0,62.0,52.0,59.9,49.1,38.8,93,67,30,30.27,30.09,10,3,15,0.00
2013-9-6,81.2,64.1,47.4,57.7,51.3,45.2,93,68,31,30.26,30.00,6,1,12,0.00
2013-9-7,81.3,72.0,65.0,68.6,64.0,56.5,90,76,64,30.00,29.87,6,1,12,0.00
2013-9-8,78.0,69.7,64.6,65.0,60.9,55.7,94,76,49,30.06,29.92,13,3,18,0.01
2013-9-9,85.9,72.2,61.2,73.3,65.5,55.6,95,80,62,30.01,29.78,6,1,12,0.79
2013-9-10,91.9,83.5,75.8,73.3,68.4,64.4,84,62,41,29.92,29.79,10,3,20,0.00
2013-9-11,85.2,76.6,65.8,70.9,67.1,62.9,92,73,49,30.00,29.90,6,1,16,0.01
2013-9-12,76.3,67.1,56.9,65.8,57.7,49.2,94,74,48,30.03,29.88,13,4,20,0.02
2013-9-13,64.6,55.7,48.4,49.6,43.5,36.0,88,66,35,30.15,30.03,12,4,18,0.00
2013-9-14,69.0,53.9,38.5,53.7,46.3,36.5,94,77,46,30.21,30.05,7,1,14,0.00
2013-9-15,59.9,56.7,52.3,57.2,52.1,44.4,94,85,64,30.16,30.03,3,0,8,0.11
2013-9-16,61.0,54.7,46.3,54.6,48.0,43.2,94,79,57,30.38,30.16,8,4,14,0.00
2013-9-17,69.9,54.2,38.8,51.9,44.8,36.7,94,73,45,30.41,30.18,7,1,10,0.01
2013-9-18,79.2,64.9,53.4,59.9,54.3,48.8,86,70,48,30.18,29.94,7,1,13,0.00
2013-9-19,75.1,69.6,65.4,69.9,64.6,56.9,94,85,67,29.97,29.80,10,1,16,0.67
2013-9-20,73.0,70.1,63.2,69.5,66.0,58.7,94,87,82,29.81,29.69,7,2,16,0.10
2013-9-21,64.0,59.5,53.8,58.8,52.2,46.2,91,77,54,29.91,29.70,12,4,20,0.00
2013-9-22,55.4,51.9,44.7,49.4,45.3,42.0,93,79,65,30.10,29.91,8,2,12,0.00
2013-9-23,65.7,50.9,37.9,49.4,43.0,36.1,94,77,51,30.20,30.10,7,1,13,0.00
2013-9-24,68.8,55.1,42.8,51.6,47.2,40.7,93,77,51,30.15,29.98,8,1,17,0.01
2013-9-25,71.7,57.7,46.7,53.1,49.0,44.8,95,76,45,30.02,29.95,8,2,13,0.00
2013-9-26,75.8,59.3,45.3,53.8,48.4,42.8,94,72,32,30.12,29.99,7,1,10,0.01
2013-9-27,80.1,62.8,46.8,56.0,51.5,44.6,95,71,37,30.22,30.10,6,1,12,0.01
2013-9-28,80.6,67.7,55.0,60.0,54.8,52.4,92,66,40,30.14,29.90,6,1,17,0.00
2013-9-29,73.1,62.6,50.5,62.6,53.8,47.9,93,75,51,30.00,29.88,9,3,14,0.30
2013-9-30,72.0,58.7,48.2,57.4,51.5,46.2,94,79,46,30.00,29.89,6,1,12,0.00
2013-10-1,73.3,64.2,54.5,65.0,59.8,51.6,93,86,74,29.95,29.88,9,3,20,0.01
2013-10-2,76.9,64.1,50.8,62.5,50.2,37.8,95,68,25,30.10,29.90,7,1,10,0.01
2013-10-3,78.4,65.3,49.8,68.4,59.1,46.0,92,80,65,30.03,29.87,8,1,16,0.00
2013-10-4,78.2,70.4,65.7,68.3,65.8,63.7,93,86,70,29.97,29.87,6,2,12,0.07
2013-10-5,76.5,70.0,65.0,71.0,66.7,63.2,94,89,78,29.98,29.74,10,1,16,1.14
2013-10-6,71.2,60.5,50.9,67.1,57.2,48.0,93,89,72,29.76,29.66,6,1,13,0.33
2013-10-7,61.1,53.1,47.3,52.6,48.3,44.8,94,85,62,30.09,29.67,14,2,20,0.24
2013-10-8,73.0,57.5,43.8,53.7,48.4,41.6,94,74,48,30.24,30.09,5,0,13,0.01
2013-10-9,72.2,57.7,44.9,52.0,47.9,42.3,94,72,43,30.29,30.17,6,0,9,0.00
2013-10-10,73.4,56.0,42.6,53.9,47.1,40.4,94,75,40,30.22,30.09,3,0,9,0.00
2013-10-11,72.0,56.8,42.9,51.5,46.2,40.7,94,72,36,30.15,30.02,8,1,12,0.00
2013-10-12,77.9,64.0,52.4,61.9,54.2,46.0,93,72,46,30.08,29.96,8,1,17,0.35
2013-10-13,61.6,53.3,44.1,57.2,47.1,41.4,95,81,57,30.39,30.08,9,2,16,0.01
2013-10-14,61.9,49.3,37.9,46.6,40.0,36.0,95,73,41,30.44,30.24,8,2,14,0.01
2013-10-15,65.3,55.7,45.5,60.8,51.3,42.0,94,85,73,30.24,29.76,7,1,17,0.39
2013-10-16,61.8,53.7,51.6,59.1,49.6,46.9,94,86,80,29.88,29.78,7,2,14,0.20
2013-10-17,52.7,49.5,41.7,51.0,47.5,39.6,97,93,87,29.88,29.74,9,2,16,0.57
2013-10-18,59.5,48.4,40.3,51.4,43.7,38.6,95,84,69,29.90,29.83,9,2,16,0.01
2013-10-19,53.7,46.6,41.7,44.1,40.8,34.2,93,81,48,29.88,29.74,7,1,33,0.24
2013-10-20,56.5,48.4,38.5,49.4,41.8,36.6,95,79,52,29.88,29.72,6,1,13,0.13
2013-10-21,54.1,48.4,41.3,51.9,41.4,27.8,93,77,58,29.89,29.75,10,3,27,0.09
2013-10-22,49.3,42.5,35.1,37.3,32.8,27.5,90,69,58,29.91,29.87,9,2,17,0.00
2013-10-23,44.4,38.2,31.7,37.2,32.6,27.4,93,81,53,29.97,29.87,9,2,16,0.02
2013-10-24,44.6,38.2,34.8,37.8,34.1,31.7,93,85,63,30.22,29.94,10,2,20,0.08
2013-10-25,50.3,40.6,33.7,38.0,33.6,29.7,93,77,52,30.35,30.00,9,2,18,0.02
2013-10-26,54.3,48.8,42.5,42.9,36.9,33.1,79,64,52,30.02,29.75,16,6,29,0.06
2013-10-27,51.9,43.6,36.7,37.2,35.2,32.4,90,73,53,30.05,29.96,8,2,20,0.00
2013-10-28,48.2,41.3,34.0,40.1,35.0,31.7,93,79,65,30.42,30.03,10,3,15,0.00
2013-10-29,50.7,43.2,39.8,39.7,34.2,29.6,82,71,63,30.44,30.22,7,3,12,0.00
2013-10-30,63.7,50.4,35.5,55.7,44.3,33.1,93,81,58,30.22,29.83,7,1,12,0.49
2013-10-31,63.6,60.6,55.9,61.8,58.8,53.6,95,94,92,29.83,29.07,9,2,18,0.81
2013-11-1,55.8,48.0,45.4,53.5,45.3,42.3,94,90,82,29.66,29.15,10,3,25,0.35
2013-11-2,48.7,45.7,41.7,45.5,41.1,36.6,94,84,63,30.11,29.65,9,3,16,0.05
2013-11-3,50.0,42.6,34.0,38.7,35.2,31.9,93,76,56,30.38,30.11,9,1,14,0.00
2013-11-4,55.1,46.2,39.7,41.6,35.3,33.0,83,67,48,30.39,30.20,9,3,22,0.00
2013-11-5,60.6,54.2,50.8,49.0,46.3,41.7,86,75,64,30.30,30.03,6,2,14,0.00
2013-11-6,57.0,50.7,41.9,54.7,47.6,38.2,94,89,70,30.03,29.71,13,5,26,1.15
2013-11-7,43.2,39.4,35.8,37.7,31.2,28.8,86,73,62,30.18,30.02,13,4,20,0.01
2013-11-8,45.1,39.9,33.4,33.6,29.9,26.5,85,68,53,30.30,30.08,10,2,13,0.00
2013-11-9,52.0,48.6,42.1,43.4,38.5,32.4,75,68,59,30.08,29.79,14,5,27,0.00
2013-11-10,46.9,42.2,33.7,34.4,32.2,29.4,89,68,58,30.27,29.93,17,7,29,0.00
2013-11-11,47.0,37.7,28.4,39.6,31.5,22.0,92,78,68,30.41,30.05,14,6,22,0.24
2013-11-12,34.3,28.6,22.3,25.2,21.3,17.7,89,75,53,30.63,30.41,15,5,22,0.00
2013-11-13,42.1,32.2,20.5,30.5,23.5,17.6,90,71,49,30.55,30.14,13,4,24,0.00
2013-11-14,48.1,42.9,34.0,34.6,30.7,26.4,74,62,51,30.15,29.94,13,6,26,0.00
2013-11-15,50.8,44.4,38.8,38.2,33.4,31.1,79,65,51,29.98,29.93,8,3,16,0.00
2013-11-16,56.2,48.8,38.9,53.9,43.4,32.4,93,82,74,30.00,29.59,9,2,18,0.32
2013-11-17,65.0,56.4,43.3,60.6,53.4,37.4,92,90,72,29.61,29.11,18,6,37,1.40
2013-11-18,46.0,38.8,35.2,38.7,29.9,25.0,76,70,64,30.17,29.51,17,9,31,0.00
2013-11-19,41.5,35.2,29.3,27.2,24.8,22.8,81,66,50,30.37,30.17,13,2,18,0.00
2013-11-20,45.9,37.5,29.7,33.1,25.9,22.1,79,64,40,30.37,30.17,10,2,23,0.01
2013-11-21,50.7,45.0,38.8,44.0,39.7,33.4,93,82,71,30.22,30.14,6,1,12,0.12
2013-11-22,46.0,37.1,26.1,44.7,32.6,23.0,96,84,71,30.41,30.13,16,6,23,0.00
2013-11-23,31.7,24.5,17.8,24.2,16.0,7.9,88,70,51,30.59,30.31,17,8,29,0.00
2013-11-24,25.4,20.8,17.5,17.6,12.7,7.2,89,71,53,30.64,30.34,9,4,16,0.00
2013-11-25,34.2,27.6,21.4,31.2,21.3,10.3,91,77,59,30.35,30.03,10,6,23,0.00
2013-11-26,34.2,31.0,24.5,31.2,25.5,15.5,89,80,64,30.04,29.95,13,4,18,0.00
2013-11-27,28.4,23.1,18.2,19.4,14.9,10.9,82,71,54,30.21,30.03,14,5,20,0.00
2013-11-28,26.8,23.4,19.0,21.6,19.4,14.1,91,85,68,30.44,30.21,6,1,14,0.00
2013-11-29,31.3,24.1,13.8,24.7,19.5,11.2,91,83,71,30.65,30.44,6,0,12,0.08
2013-11-30,44.1,36.0,26.8,33.8,26.7,20.2,79,69,60,30.46,29.98,8,2,18,0.03
2013-12-1,40.8,37.1,33.4,34.5,30.0,25.3,90,76,62,30.02,29.93,9,2,13,0.00
2013-12-2,40.2,34.8,30.2,31.0,27.0,23.1,89,74,58,29.93,29.81,7,1,9,0.00
2013-12-3,35.2,33.4,30.6,33.4,29.7,23.4,93,87,66,29.82,29.72,10,3,16,0.73
2013-12-4,56.8,44.3,35.2,53.2,42.3,33.4,95,93,77,29.77,29.45,10,2,24,0.04
2013-12-5,54.7,35.4,26.5,50.0,28.2,18.4,85,75,66,30.11,29.47,15,7,27,0.00
2013-12-6,26.6,22.4,19.9,18.9,15.8,13.7,88,76,71,30.38,30.11,10,6,14,0.00
2013-12-7,19.9,17.0,11.1,16.4,11.9,7.8,89,80,72,30.59,30.38,9,4,14,0.00
2013-12-8,21.1,17.7,11.7,18.6,13.2,8.6,93,82,67,30.55,29.93,10,4,18,0.00
2013-12-9,28.3,23.4,16.1,26.1,17.9,8.1,92,79,64,30.07,29.81,13,5,25,0.00
2013-12-10,21.9,17.2,11.5,17.5,12.0,7.5,89,80,69,30.15,29.87,12,4,23,0.00
2013-12-11,20.6,16.1,11.0,17.9,11.9,7.2,96,83,72,30.42,30.15,13,4,20,0.00
2013-12-12,24.8,17.1,11.3,20.5,13.3,6.9,88,85,79,30.41,30.12,8,3,18,0.00
2013-12-13,26.8,24.8,20.8,22.1,18.6,15.0,84,77,70,30.20,30.09,13,4,20,0.02
2013-12-14,20.7,18.9,16.2,17.6,15.4,11.8,89,86,78,30.19,29.86,15,8,22,0.00
2013-12-15,23.1,18.6,14.8,20.4,14.3,8.9,90,83,71,30.01,29.79,15,5,20,0.00
2013-12-16,24.1,14.9,1.2,14.6,9.3,-2.5,96,79,59,30.13,29.96,6,1,9,0.05
2013-12-17,31.1,25.7,17.6,27.9,22.4,13.9,92,87,73,29.96,29.80,10,3,20,0.00
2013-12-18,32.2,27.6,25.3,24.5,19.5,13.6,88,72,58,30.08,29.76,12,4,21,0.00
2013-12-19,37.0,33.6,27.2,33.9,29.4,24.6,93,85,73,29.91,29.74,10,4,16,0.03
2013-12-20,32.9,31.5,29.4,30.9,29.3,26.8,93,91,90,29.81,29.68,8,1,12,0.00
2013-12-21,32.6,31.2,29.4,30.9,29.4,26.6,97,93,89,29.81,29.64,0,0,0,0.02
2013-12-22,30.7,29.0,25.3,29.7,26.4,22.8,97,90,88,29.96,29.51,0,0,2,0.05
2013-12-23,26.4,22.8,17.3,23.6,19.9,14.3,92,88,80,30.26,29.96,0,0,1,0.00
2013-12-24,22.8,16.8,11.6,17.6,13.4,8.5,89,86,77,30.45,30.26,0,0,2,0.01
2013-12-25,24.9,20.2,12.3,22.6,17.3,9.4,96,88,84,30.40,30.00,0,0,0,0.00
2013-12-26,26.4,24.5,21.8,24.4,21.1,16.1,92,87,78,30.19,29.98,0,0,0,0.00
2013-12-27,39.5,31.7,26.5,33.2,28.1,24.3,93,87,75,30.24,29.97,10,2,20,0.03
2013-12-28,45.9,39.6,30.7,35.1,32.7,28.4,93,77,62,30.00,29.76,10,4,21,0.10
2013-12-29,43.1,31.1,18.0,33.0,24.4,9.9,90,76,64,30.02,29.66,15,7,21,0.00
2013-12-30,18.0,16.0,14.2,12.9,9.1,4.5,85,74,64,30.24,30.03,9,3,13,0.00
2013-12-31,17.6,14.9,12.4,13.6,11.1,8.2,87,85,78,30.31,30.06,9,4,15,0.00
2014-1-1,13.1,11.7,10.7,8.4,5.5,1.8,84,76,63,30.37,30.23,12,7,17,0.00
2014-1-2,13.4,9.0,-6.5,8.0,2.1,-10.8,84,74,60,30.34,30.17,15,7,21,0.00